Flight Track Log - Related Links

Times and Time Zones

All times are in EDT time to prevent confusion due to time zone crossing. See the DAL2432 flight status page for this flight to view local times or setup timezone preferences in your user account.

Time Position Orientation Groundspeed Altitude Reporting Facility
EDT Latitude Longitude Course Direction KTS MPH feet Rate Location/Type
Wed 02:12:04 PM 38.0694 -85.7558 225° Southwest 218 251 4,900  Level Indianapolis Center
Wed 02:13:00 PM 38.0119 -86.0292 234° Southwest  Level FlightAware Approximate
Wed 02:13:06 PM 38.0500 -85.8542 256° West 237 273 8,000  Level Indianapolis Center
Wed 02:14:00 PM 37.9532 -86.1281 233° Southwest  Level FlightAware Approximate
Wed 02:14:08 PM 38.0183 -85.9325 243° Southwest 242 278 10,700  Level Indianapolis Center
Wed 02:15:00 PM 37.8904 -86.2192 192° South  Level FlightAware Approximate
Wed 02:15:09 PM 37.9875 -86.0133 244° Southwest 247 284 12,300  Level Indianapolis Center
Wed 02:16:00 PM 37.8068 -86.2413 192° South  Level FlightAware Approximate
Wed 02:16:11 PM 37.9525 -86.1103 245° Southwest 286 329 13,700  Level Indianapolis Center
Wed 02:17:13 PM 37.9103 -86.2103 242° Southwest 314 361 15,800 1,887 Climbing Indianapolis Center
Wed 02:18:15 PM 37.8169 -86.2500 199° South 353 406 17,600 1,902 Climbing Indianapolis Center
Wed 02:19:16 PM 37.7175 -86.2717 190° South 365 420 19,700 2,146 Climbing Indianapolis Center
Wed 02:20:18 PM 37.5917 -86.2989 190° South 384 442 22,000 1,984 Climbing Indianapolis Center
Wed 02:21:20 PM 37.4861 -86.3228 190° South 384 442 23,800 1,452 Climbing Indianapolis Center
Wed 02:22:22 PM 37.3775 -86.3475 190° South 387 445 25,000 1,317 Climbing Indianapolis Center
Wed 02:23:23 PM 37.2658 -86.3700 189° South 397 457 26,500 1,171 Climbing Indianapolis Center
Wed 02:24:25 PM 37.1472 -86.3739 181° South 416 479 27,400 1,306 Climbing Indianapolis Center
Wed 02:25:27 PM 37.0261 -86.3714 179° South 427 491 29,200 1,403 Climbing Indianapolis Center
Wed 02:26:29 PM 36.9086 -86.3708 180° South 421 484 30,300 1,212 Climbing Indianapolis Center
Wed 02:27:06 PM 36.8292 -86.3717 180° South 422 486 31,200 1,212 Climbing Memphis Center
Wed 02:28:08 PM 36.7108 -86.3703 179° South 422 486 32,300 871 Climbing Memphis Center
Wed 02:29:10 PM 36.5917 -86.3703 180° South 422 486 33,000 339 Climbing Memphis Center
Wed 02:30:12 PM 36.4717 -86.3700 180° South 422 486 33,000  Level Memphis Center
Wed 02:31:14 PM 36.3514 -86.3689 180° South 422 486 33,000  Level Memphis Center
Wed 02:32:16 PM 36.2311 -86.3700 180° South 422 486 33,000  Level Memphis Center
Wed 02:33:18 PM 36.1103 -86.3692 180° South 423 487 33,000  Level Memphis Center
Wed 02:34:20 PM 35.9703 -86.3694 180° South 423 487 33,000  Level Memphis Center
Wed 02:35:22 PM 35.8511 -86.3689 180° South 423 487 33,000  Level Memphis Center
Wed 02:36:24 PM 35.7286 -86.3397 169° South 442 509 33,000  Level Memphis Center
Wed 02:37:27 PM 35.6097 -86.2567 150° Southeast 481 554 33,000  Level Memphis Center
Wed 02:38:34 PM 35.4706 -86.1503 148° Southeast 480 552 33,000  Level Atlanta Center
Wed 02:39:34 PM 35.3553 -86.0606 148° Southeast 486 559 33,000  Level Atlanta Center
Wed 02:40:34 PM 35.2422 -85.9664 146° Southeast 496 571 33,000  Level Atlanta Center
Wed 02:41:34 PM 35.1308 -85.8775 147° Southeast 491 565 33,000 -250 Level Atlanta Center
Wed 02:42:34 PM 35.0153 -85.7886 148° Southeast 491 565 32,500 -750 Descending Atlanta Center
Wed 02:43:34 PM 34.9039 -85.6978 146° Southeast 491 565 31,500 -1,050 Descending Atlanta Center
Wed 02:44:34 PM 34.7881 -85.6069 147° Southeast 491 565 30,400 -2,350 Descending Atlanta Center
Wed 02:45:34 PM 34.6744 -85.5189 147° Southeast 491 565 26,800 -3,050 Descending Atlanta Center
Wed 02:46:34 PM 34.5669 -85.4311 146° Southeast 491 565 24,300 -2,650 Descending Atlanta Center
Wed 02:47:34 PM 34.4572 -85.3514 149° Southeast 473 544 21,500 -2,400 Descending Atlanta Center
Wed 02:48:34 PM 34.3642 -85.2719 145° Southeast 446 513 19,500 -2,250 Descending Atlanta Center
Wed 02:49:34 PM 34.2647 -85.2000 149° Southeast 419 482 17,000 -2,350 Descending Atlanta Center
Wed 02:50:34 PM 34.1736 -85.1258 146° Southeast 406 467 14,800 -1,400 Descending Atlanta Center
Wed 02:51:34 PM 34.0992 -85.0347 135° Southeast 389 448 14,200 -400 Descending Atlanta Center
Wed 02:52:34 PM 34.0350 -84.9561 135° Southeast 375 432 14,000 -150 Descending Atlanta Center
Wed 02:53:34 PM 33.9628 -84.8653 134° Southeast 370 426 13,900 -550 Descending Atlanta Center
Wed 02:54:34 PM 33.8903 -84.7769 135° Southeast 370 426 12,900 -950 Descending Atlanta Center
Wed 02:55:34 PM 33.8175 -84.6864 134° Southeast 375 432 12,000 -458 Descending Atlanta Center
Wed 02:56:32 PM 33.7500 -84.6000 133° Southeast 341 392 12,000 -726 Level Atlanta TRACON
Wed 02:57:38 PM 33.7333 -84.4667 99° East 343 395 10,500 -1,571 Descending Atlanta TRACON
Wed 02:58:38 PM 33.7333 -84.3667 90° East 336 387 8,700 -1,700 Descending Atlanta TRACON
Wed 02:59:38 PM 33.7333 -84.2667 90° East 315 362 7,100 -1,700 Descending Atlanta TRACON
Wed 03:00:38 PM 33.7333 -84.1667 90° East 307 353 5,300 -1,059 Descending Atlanta TRACON
Wed 03:01:37 PM 33.7333 -84.0667 90° East 299 344 5,000 -200 Descending Atlanta TRACON
Wed 03:02:38 PM 33.7167 -83.9667 101° East 285 328 4,900  Descending Atlanta TRACON
Wed 03:03:38 PM 33.6667 -83.9833 196° South 219 252 5,000 48 Climbing Atlanta TRACON
Wed 03:04:43 PM 33.6500 -84.0667 257° West 204 235 5,000  Level Atlanta TRACON
Wed 03:05:38 PM 33.6500 -84.1167 270° West 203 234 5,000 -200 Level Atlanta TRACON
Wed 03:06:43 PM 33.6500 -84.2000 270° West 202 232 4,600 -720 Descending Atlanta TRACON
Wed 03:07:43 PM 33.6500 -84.2667 270° West 177 204 3,500 -991 Descending Atlanta TRACON
Wed 03:08:38 PM 33.6500 -84.3167 270° West 174 200 2,700 -893 Descending Atlanta TRACON
Wed 03:09:44 PM 33.6500 -84.3667 270° West 149 171 1,700 -909 Descending Atlanta TRACON

Login

Don't have an account? Register now (free) for customized features, flight alerts, and more!